sensor_id;sensor_type;location;lat;lon;timestamp;P1;durP1;ratioP1;P2;durP2;ratioP2
56343;SDS011;42245;42.058;24.700;2023-09-18T00:01:37;11.35;;;5.45;;
56343;SDS011;42245;42.058;24.700;2023-09-18T00:04:04;11.82;;;5.65;;
56343;SDS011;42245;42.058;24.700;2023-09-18T00:06:30;8.73;;;5.18;;
56343;SDS011;42245;42.058;24.700;2023-09-18T00:08:57;8.63;;;5.30;;
56343;SDS011;42245;42.058;24.700;2023-09-18T00:11:23;11.63;;;5.63;;
56343;SDS011;42245;42.058;24.700;2023-09-18T00:13:48;10.77;;;5.90;;
56343;SDS011;42245;42.058;24.700;2023-09-18T00:16:13;9.10;;;5.03;;
56343;SDS011;42245;42.058;24.700;2023-09-18T00:18:39;11.98;;;6.20;;
56343;SDS011;42245;42.058;24.700;2023-09-18T00:21:05;13.30;;;6.03;;
56343;SDS011;42245;42.058;24.700;2023-09-18T00:23:31;12.25;;;5.55;;
56343;SDS011;42245;42.058;24.700;2023-09-18T00:25:57;10.45;;;5.75;;
56343;SDS011;42245;42.058;24.700;2023-09-18T00:28:23;11.52;;;5.57;;
56343;SDS011;42245;42.058;24.700;2023-09-18T00:30:49;10.45;;;5.18;;
56343;SDS011;42245;42.058;24.700;2023-09-18T00:33:14;7.93;;;5.22;;
56343;SDS011;42245;42.058;24.700;2023-09-18T00:35:40;12.85;;;5.85;;
56343;SDS011;42245;42.058;24.700;2023-09-18T00:38:05;8.63;;;5.50;;
56343;SDS011;42245;42.058;24.700;2023-09-18T00:40:32;8.13;;;5.50;;
56343;SDS011;42245;42.058;24.700;2023-09-18T00:42:57;9.00;;;5.38;;
56343;SDS011;42245;42.058;24.700;2023-09-18T00:45:23;9.65;;;5.32;;
56343;SDS011;42245;42.058;24.700;2023-09-18T00:47:49;14.52;;;5.68;;
56343;SDS011;42245;42.058;24.700;2023-09-18T00:50:15;9.65;;;5.47;;
56343;SDS011;42245;42.058;24.700;2023-09-18T00:52:41;8.82;;;5.40;;
56343;SDS011;42245;42.058;24.700;2023-09-18T00:55:07;10.77;;;5.88;;
56343;SDS011;42245;42.058;24.700;2023-09-18T00:57:34;9.40;;;5.40;;
56343;SDS011;42245;42.058;24.700;2023-09-18T00:59:59;8.35;;;5.40;;
56343;SDS011;42245;42.058;24.700;2023-09-18T01:02:25;10.98;;;5.40;;
56343;SDS011;42245;42.058;24.700;2023-09-18T01:04:51;13.35;;;5.80;;
56343;SDS011;42245;42.058;24.700;2023-09-18T01:07:17;9.20;;;6.03;;
56343;SDS011;42245;42.058;24.700;2023-09-18T01:09:43;7.40;;;5.35;;
56343;SDS011;42245;42.058;24.700;2023-09-18T01:14:39;8.57;;;5.57;;
56343;SDS011;42245;42.058;24.700;2023-09-18T01:17:09;12.52;;;5.53;;
56343;SDS011;42245;42.058;24.700;2023-09-18T01:22:08;11.32;;;5.93;;
56343;SDS011;42245;42.058;24.700;2023-09-18T01:24:35;13.15;;;5.55;;
56343;SDS011;42245;42.058;24.700;2023-09-18T01:27:01;11.25;;;5.90;;
56343;SDS011;42245;42.058;24.700;2023-09-18T01:29:28;13.45;;;6.00;;
56343;SDS011;42245;42.058;24.700;2023-09-18T01:31:54;17.95;;;5.43;;
56343;SDS011;42245;42.058;24.700;2023-09-18T01:34:23;9.25;;;5.80;;
56343;SDS011;42245;42.058;24.700;2023-09-18T01:36:51;9.25;;;5.60;;
56343;SDS011;42245;42.058;24.700;2023-09-18T01:39:17;13.00;;;5.38;;
56343;SDS011;42245;42.058;24.700;2023-09-18T01:41:43;12.27;;;5.88;;
56343;SDS011;42245;42.058;24.700;2023-09-18T01:44:08;8.65;;;5.45;;
56343;SDS011;42245;42.058;24.700;2023-09-18T01:46:34;9.43;;;5.95;;
56343;SDS011;42245;42.058;24.700;2023-09-18T01:49:01;11.80;;;5.80;;
56343;SDS011;42245;42.058;24.700;2023-09-18T01:51:28;9.38;;;5.60;;
56343;SDS011;42245;42.058;24.700;2023-09-18T01:53:55;11.40;;;6.20;;
56343;SDS011;42245;42.058;24.700;2023-09-18T01:56:20;12.55;;;6.10;;
56343;SDS011;42245;42.058;24.700;2023-09-18T01:58:46;13.23;;;6.20;;
56343;SDS011;42245;42.058;24.700;2023-09-18T02:01:11;10.85;;;6.05;;
56343;SDS011;42245;42.058;24.700;2023-09-18T02:03:37;15.07;;;6.15;;
56343;SDS011;42245;42.058;24.700;2023-09-18T02:06:10;10.75;;;6.10;;
56343;SDS011;42245;42.058;24.700;2023-09-18T02:08:35;10.65;;;6.05;;
56343;SDS011;42245;42.058;24.700;2023-09-18T02:11:01;12.50;;;5.97;;
56343;SDS011;42245;42.058;24.700;2023-09-18T02:13:27;8.15;;;5.47;;
56343;SDS011;42245;42.058;24.700;2023-09-18T02:15:53;11.38;;;5.80;;
56343;SDS011;42245;42.058;24.700;2023-09-18T02:18:18;9.80;;;5.88;;
56343;SDS011;42245;42.058;24.700;2023-09-18T02:20:44;10.68;;;5.97;;
56343;SDS011;42245;42.058;24.700;2023-09-18T02:23:12;14.43;;;6.13;;
56343;SDS011;42245;42.058;24.700;2023-09-18T02:25:38;10.10;;;6.05;;
56343;SDS011;42245;42.058;24.700;2023-09-18T02:28:05;9.25;;;5.95;;
56343;SDS011;42245;42.058;24.700;2023-09-18T02:30:31;11.98;;;6.20;;
56343;SDS011;42245;42.058;24.700;2023-09-18T02:32:56;15.82;;;6.63;;
56343;SDS011;42245;42.058;24.700;2023-09-18T02:35:22;7.90;;;5.80;;
56343;SDS011;42245;42.058;24.700;2023-09-18T02:37:47;14.43;;;6.18;;
56343;SDS011;42245;42.058;24.700;2023-09-18T02:40:13;11.65;;;6.10;;
56343;SDS011;42245;42.058;24.700;2023-09-18T02:42:38;12.88;;;6.43;;
56343;SDS011;42245;42.058;24.700;2023-09-18T02:45:04;9.98;;;5.80;;
56343;SDS011;42245;42.058;24.700;2023-09-18T02:47:30;13.50;;;6.28;;
56343;SDS011;42245;42.058;24.700;2023-09-18T02:49:55;13.68;;;6.47;;
56343;SDS011;42245;42.058;24.700;2023-09-18T02:52:21;11.00;;;6.18;;
56343;SDS011;42245;42.058;24.700;2023-09-18T02:54:46;11.63;;;6.03;;
56343;SDS011;42245;42.058;24.700;2023-09-18T02:57:12;10.63;;;5.82;;
56343;SDS011;42245;42.058;24.700;2023-09-18T02:59:38;12.07;;;6.20;;
56343;SDS011;42245;42.058;24.700;2023-09-18T03:02:03;12.02;;;5.65;;
56343;SDS011;42245;42.058;24.700;2023-09-18T03:04:29;13.15;;;5.97;;
56343;SDS011;42245;42.058;24.700;2023-09-18T03:06:56;8.50;;;6.07;;
56343;SDS011;42245;42.058;24.700;2023-09-18T03:09:21;11.32;;;6.32;;
56343;SDS011;42245;42.058;24.700;2023-09-18T03:11:47;15.30;;;6.28;;
56343;SDS011;42245;42.058;24.700;2023-09-18T03:14:12;10.68;;;5.85;;
56343;SDS011;42245;42.058;24.700;2023-09-18T03:16:38;10.05;;;6.28;;
56343;SDS011;42245;42.058;24.700;2023-09-18T03:19:03;13.27;;;6.32;;
56343;SDS011;42245;42.058;24.700;2023-09-18T03:21:29;9.50;;;5.95;;
56343;SDS011;42245;42.058;24.700;2023-09-18T03:23:56;14.98;;;6.97;;
56343;SDS011;42245;42.058;24.700;2023-09-18T03:26:22;12.77;;;6.20;;
56343;SDS011;42245;42.058;24.700;2023-09-18T03:28:48;11.30;;;5.75;;
56343;SDS011;42245;42.058;24.700;2023-09-18T03:31:13;12.98;;;6.07;;
56343;SDS011;42245;42.058;24.700;2023-09-18T03:33:39;10.10;;;6.18;;
56343;SDS011;42245;42.058;24.700;2023-09-18T03:36:04;15.20;;;6.13;;
56343;SDS011;42245;42.058;24.700;2023-09-18T03:38:30;22.58;;;6.57;;
56343;SDS011;42245;42.058;24.700;2023-09-18T03:40:59;10.70;;;6.47;;
56343;SDS011;42245;42.058;24.700;2023-09-18T03:43:26;18.55;;;7.10;;
56343;SDS011;42245;42.058;24.700;2023-09-18T03:45:51;17.40;;;7.07;;
56343;SDS011;42245;42.058;24.700;2023-09-18T03:48:16;14.10;;;6.95;;
56343;SDS011;42245;42.058;24.700;2023-09-18T03:50:42;13.48;;;7.30;;
56343;SDS011;42245;42.058;24.700;2023-09-18T03:53:08;16.45;;;7.07;;
56343;SDS011;42245;42.058;24.700;2023-09-18T03:55:34;8.35;;;6.40;;
56343;SDS011;42245;42.058;24.700;2023-09-18T03:58:00;11.70;;;6.90;;
56343;SDS011;42245;42.058;24.700;2023-09-18T04:00:25;10.18;;;6.28;;
56343;SDS011;42245;42.058;24.700;2023-09-18T04:02:51;13.27;;;7.15;;
56343;SDS011;42245;42.058;24.700;2023-09-18T04:05:16;11.77;;;6.82;;
56343;SDS011;42245;42.058;24.700;2023-09-18T04:07:42;11.27;;;6.85;;
56343;SDS011;42245;42.058;24.700;2023-09-18T04:10:11;11.65;;;6.57;;
56343;SDS011;42245;42.058;24.700;2023-09-18T04:12:43;9.38;;;7.07;;
56343;SDS011;42245;42.058;24.700;2023-09-18T04:15:11;11.77;;;7.38;;
56343;SDS011;42245;42.058;24.700;2023-09-18T04:17:39;14.48;;;7.10;;
56343;SDS011;42245;42.058;24.700;2023-09-18T04:20:04;11.70;;;7.00;;
56343;SDS011;42245;42.058;24.700;2023-09-18T04:22:32;13.02;;;6.97;;
56343;SDS011;42245;42.058;24.700;2023-09-18T04:24:57;14.00;;;7.40;;
56343;SDS011;42245;42.058;24.700;2023-09-18T04:27:23;10.00;;;6.93;;
56343;SDS011;42245;42.058;24.700;2023-09-18T04:29:48;13.88;;;7.20;;
56343;SDS011;42245;42.058;24.700;2023-09-18T04:32:14;17.08;;;6.90;;
56343;SDS011;42245;42.058;24.700;2023-09-18T04:34:39;13.45;;;6.53;;
56343;SDS011;42245;42.058;24.700;2023-09-18T04:37:04;13.02;;;6.68;;
56343;SDS011;42245;42.058;24.700;2023-09-18T04:39:30;19.23;;;8.07;;
56343;SDS011;42245;42.058;24.700;2023-09-18T04:41:58;11.85;;;6.78;;
56343;SDS011;42245;42.058;24.700;2023-09-18T04:44:26;14.43;;;7.32;;
56343;SDS011;42245;42.058;24.700;2023-09-18T04:46:51;15.70;;;6.90;;
56343;SDS011;42245;42.058;24.700;2023-09-18T04:49:17;11.93;;;6.85;;
56343;SDS011;42245;42.058;24.700;2023-09-18T04:51:42;15.93;;;7.13;;
56343;SDS011;42245;42.058;24.700;2023-09-18T04:54:09;13.20;;;7.15;;
56343;SDS011;42245;42.058;24.700;2023-09-18T04:56:34;12.57;;;6.97;;
56343;SDS011;42245;42.058;24.700;2023-09-18T04:58:59;10.40;;;6.50;;
56343;SDS011;42245;42.058;24.700;2023-09-18T05:01:25;11.95;;;6.68;;
56343;SDS011;42245;42.058;24.700;2023-09-18T05:03:50;13.00;;;6.78;;
56343;SDS011;42245;42.058;24.700;2023-09-18T05:06:16;12.90;;;6.72;;
56343;SDS011;42245;42.058;24.700;2023-09-18T05:08:42;13.13;;;6.93;;
56343;SDS011;42245;42.058;24.700;2023-09-18T05:11:09;13.82;;;6.55;;
56343;SDS011;42245;42.058;24.700;2023-09-18T05:13:34;13.23;;;7.07;;
56343;SDS011;42245;42.058;24.700;2023-09-18T05:15:59;14.40;;;7.18;;
56343;SDS011;42245;42.058;24.700;2023-09-18T05:18:26;12.60;;;7.47;;
56343;SDS011;42245;42.058;24.700;2023-09-18T05:20:51;14.13;;;7.60;;
56343;SDS011;42245;42.058;24.700;2023-09-18T05:23:17;13.65;;;7.95;;
56343;SDS011;42245;42.058;24.700;2023-09-18T05:25:43;18.20;;;8.32;;
56343;SDS011;42245;42.058;24.700;2023-09-18T05:28:09;17.92;;;7.95;;
56343;SDS011;42245;42.058;24.700;2023-09-18T05:30:35;17.80;;;7.82;;
56343;SDS011;42245;42.058;24.700;2023-09-18T05:33:03;14.93;;;7.35;;
56343;SDS011;42245;42.058;24.700;2023-09-18T05:35:33;16.33;;;8.00;;
56343;SDS011;42245;42.058;24.700;2023-09-18T05:37:59;16.33;;;7.63;;
56343;SDS011;42245;42.058;24.700;2023-09-18T05:43:13;15.23;;;6.75;;
56343;SDS011;42245;42.058;24.700;2023-09-18T05:45:39;13.80;;;6.68;;
56343;SDS011;42245;42.058;24.700;2023-09-18T05:48:05;14.00;;;6.78;;
56343;SDS011;42245;42.058;24.700;2023-09-18T05:50:31;11.77;;;6.22;;
56343;SDS011;42245;42.058;24.700;2023-09-18T05:52:58;14.88;;;6.68;;
56343;SDS011;42245;42.058;24.700;2023-09-18T05:55:29;15.15;;;6.32;;
56343;SDS011;42245;42.058;24.700;2023-09-18T05:57:58;12.77;;;6.07;;
56343;SDS011;42245;42.058;24.700;2023-09-18T06:00:24;11.80;;;6.20;;
56343;SDS011;42245;42.058;24.700;2023-09-18T06:02:49;18.17;;;6.45;;
56343;SDS011;42245;42.058;24.700;2023-09-18T06:05:16;12.30;;;6.03;;
56343;SDS011;42245;42.058;24.700;2023-09-18T06:07:42;12.65;;;6.30;;
56343;SDS011;42245;42.058;24.700;2023-09-18T06:10:07;8.50;;;5.20;;
56343;SDS011;42245;42.058;24.700;2023-09-18T06:12:33;13.52;;;5.72;;
56343;SDS011;42245;42.058;24.700;2023-09-18T06:14:58;10.07;;;4.90;;
56343;SDS011;42245;42.058;24.700;2023-09-18T06:17:24;11.30;;;5.00;;
56343;SDS011;42245;42.058;24.700;2023-09-18T06:19:50;7.20;;;4.80;;
56343;SDS011;42245;42.058;24.700;2023-09-18T06:22:15;10.93;;;5.30;;
56343;SDS011;42245;42.058;24.700;2023-09-18T06:24:41;8.05;;;4.80;;
56343;SDS011;42245;42.058;24.700;2023-09-18T06:27:07;10.98;;;4.90;;
56343;SDS011;42245;42.058;24.700;2023-09-18T06:29:32;9.73;;;4.45;;
56343;SDS011;42245;42.058;24.700;2023-09-18T06:31:58;11.00;;;4.60;;
56343;SDS011;42245;42.058;24.700;2023-09-18T06:34:24;9.57;;;4.88;;
56343;SDS011;42245;42.058;24.700;2023-09-18T06:36:50;15.18;;;5.25;;
56343;SDS011;42245;42.058;24.700;2023-09-18T06:39:15;11.63;;;5.60;;
56343;SDS011;42245;42.058;24.700;2023-09-18T06:41:41;15.13;;;6.38;;
56343;SDS011;42245;42.058;24.700;2023-09-18T06:44:06;9.48;;;5.40;;
56343;SDS011;42245;42.058;24.700;2023-09-18T06:46:32;9.35;;;5.38;;
56343;SDS011;42245;42.058;24.700;2023-09-18T06:48:57;15.05;;;5.35;;
56343;SDS011;42245;42.058;24.700;2023-09-18T06:51:25;12.38;;;4.97;;
56343;SDS011;42245;42.058;24.700;2023-09-18T06:53:53;10.45;;;5.30;;
56343;SDS011;42245;42.058;24.700;2023-09-18T06:56:19;12.15;;;5.00;;
56343;SDS011;42245;42.058;24.700;2023-09-18T06:58:45;11.45;;;5.00;;
56343;SDS011;42245;42.058;24.700;2023-09-18T07:01:13;9.60;;;4.63;;
56343;SDS011;42245;42.058;24.700;2023-09-18T07:03:40;9.82;;;4.53;;
56343;SDS011;42245;42.058;24.700;2023-09-18T07:06:05;7.82;;;4.93;;
56343;SDS011;42245;42.058;24.700;2023-09-18T07:08:31;11.48;;;4.40;;
56343;SDS011;42245;42.058;24.700;2023-09-18T07:10:57;9.02;;;4.65;;
56343;SDS011;42245;42.058;24.700;2023-09-18T07:13:23;9.55;;;4.30;;
56343;SDS011;42245;42.058;24.700;2023-09-18T07:15:49;14.05;;;4.68;;
56343;SDS011;42245;42.058;24.700;2023-09-18T07:18:14;10.13;;;4.43;;
56343;SDS011;42245;42.058;24.700;2023-09-18T07:20:40;10.60;;;4.32;;
56343;SDS011;42245;42.058;24.700;2023-09-18T07:23:06;8.07;;;4.40;;
56343;SDS011;42245;42.058;24.700;2023-09-18T07:25:32;10.70;;;4.60;;
56343;SDS011;42245;42.058;24.700;2023-09-18T07:27:57;8.80;;;4.00;;
56343;SDS011;42245;42.058;24.700;2023-09-18T07:30:23;7.50;;;4.22;;
56343;SDS011;42245;42.058;24.700;2023-09-18T07:32:52;11.38;;;3.95;;
56343;SDS011;42245;42.058;24.700;2023-09-18T07:35:21;9.57;;;4.40;;
56343;SDS011;42245;42.058;24.700;2023-09-18T07:37:47;9.82;;;4.47;;
56343;SDS011;42245;42.058;24.700;2023-09-18T07:40:13;7.70;;;4.40;;
56343;SDS011;42245;42.058;24.700;2023-09-18T07:42:39;8.70;;;4.32;;
56343;SDS011;42245;42.058;24.700;2023-09-18T07:45:04;10.45;;;4.40;;
56343;SDS011;42245;42.058;24.700;2023-09-18T07:47:30;8.70;;;4.55;;
56343;SDS011;42245;42.058;24.700;2023-09-18T07:49:56;7.65;;;4.30;;
56343;SDS011;42245;42.058;24.700;2023-09-18T07:52:22;9.55;;;4.57;;
56343;SDS011;42245;42.058;24.700;2023-09-18T07:54:47;8.82;;;4.45;;
56343;SDS011;42245;42.058;24.700;2023-09-18T07:57:13;6.68;;;4.07;;
56343;SDS011;42245;42.058;24.700;2023-09-18T07:59:38;7.82;;;3.88;;
56343;SDS011;42245;42.058;24.700;2023-09-18T08:02:04;9.90;;;3.53;;
56343;SDS011;42245;42.058;24.700;2023-09-18T08:04:31;10.25;;;3.67;;
56343;SDS011;42245;42.058;24.700;2023-09-18T08:06:56;6.47;;;4.05;;
56343;SDS011;42245;42.058;24.700;2023-09-18T08:09:22;8.13;;;4.13;;
56343;SDS011;42245;42.058;24.700;2023-09-18T08:11:47;8.52;;;3.72;;
56343;SDS011;42245;42.058;24.700;2023-09-18T08:14:14;6.82;;;4.25;;
56343;SDS011;42245;42.058;24.700;2023-09-18T08:16:40;6.72;;;3.78;;
56343;SDS011;42245;42.058;24.700;2023-09-18T08:19:05;6.85;;;3.20;;
56343;SDS011;42245;42.058;24.700;2023-09-18T08:21:32;11.95;;;3.17;;
56343;SDS011;42245;42.058;24.700;2023-09-18T08:23:57;5.22;;;3.17;;
56343;SDS011;42245;42.058;24.700;2023-09-18T08:26:23;9.30;;;3.70;;
56343;SDS011;42245;42.058;24.700;2023-09-18T08:28:48;6.45;;;3.38;;
56343;SDS011;42245;42.058;24.700;2023-09-18T08:31:14;5.90;;;3.80;;
56343;SDS011;42245;42.058;24.700;2023-09-18T08:33:41;5.57;;;3.30;;
56343;SDS011;42245;42.058;24.700;2023-09-18T08:36:07;6.70;;;3.63;;
56343;SDS011;42245;42.058;24.700;2023-09-18T08:38:32;6.10;;;3.70;;
56343;SDS011;42245;42.058;24.700;2023-09-18T08:40:58;9.15;;;3.78;;
56343;SDS011;42245;42.058;24.700;2023-09-18T08:43:23;5.97;;;3.55;;
56343;SDS011;42245;42.058;24.700;2023-09-18T08:45:51;5.07;;;3.22;;
56343;SDS011;42245;42.058;24.700;2023-09-18T08:48:18;5.03;;;3.13;;
56343;SDS011;42245;42.058;24.700;2023-09-18T08:50:44;5.72;;;2.95;;
56343;SDS011;42245;42.058;24.700;2023-09-18T08:53:10;6.75;;;3.10;;
56343;SDS011;42245;42.058;24.700;2023-09-18T08:55:36;7.38;;;3.80;;
56343;SDS011;42245;42.058;24.700;2023-09-18T08:58:01;7.78;;;3.53;;
56343;SDS011;42245;42.058;24.700;2023-09-18T09:00:27;7.68;;;3.42;;
56343;SDS011;42245;42.058;24.700;2023-09-18T09:02:53;7.95;;;3.90;;
56343;SDS011;42245;42.058;24.700;2023-09-18T09:05:19;11.70;;;3.15;;
56343;SDS011;42245;42.058;24.700;2023-09-18T09:07:46;5.57;;;3.30;;
56343;SDS011;42245;42.058;24.700;2023-09-18T09:10:11;8.05;;;3.22;;
56343;SDS011;42245;42.058;24.700;2023-09-18T09:15:26;12.20;;;3.42;;
56343;SDS011;42245;42.058;24.700;2023-09-18T09:18:03;5.63;;;3.20;;
56343;SDS011;42245;42.058;24.700;2023-09-18T09:20:30;5.93;;;3.40;;
56343;SDS011;42245;42.058;24.700;2023-09-18T09:23:00;7.13;;;3.30;;
56343;SDS011;42245;42.058;24.700;2023-09-18T09:25:29;5.05;;;3.38;;
56343;SDS011;42245;42.058;24.700;2023-09-18T09:27:57;4.55;;;3.20;;
56343;SDS011;42245;42.058;24.700;2023-09-18T09:30:26;5.22;;;3.10;;
56343;SDS011;42245;42.058;24.700;2023-09-18T09:32:53;4.90;;;2.90;;
56343;SDS011;42245;42.058;24.700;2023-09-18T09:37:45;7.47;;;3.25;;
56343;SDS011;42245;42.058;24.700;2023-09-18T09:40:11;6.38;;;3.53;;
56343;SDS011;42245;42.058;24.700;2023-09-18T09:42:39;6.55;;;3.50;;
56343;SDS011;42245;42.058;24.700;2023-09-18T09:45:11;5.93;;;3.10;;
56343;SDS011;42245;42.058;24.700;2023-09-18T09:47:37;6.43;;;3.25;;
56343;SDS011;42245;42.058;24.700;2023-09-18T09:50:06;6.53;;;2.88;;
56343;SDS011;42245;42.058;24.700;2023-09-18T09:52:44;5.15;;;2.95;;
56343;SDS011;42245;42.058;24.700;2023-09-18T09:55:26;5.05;;;2.97;;
56343;SDS011;42245;42.058;24.700;2023-09-18T09:57:55;4.97;;;3.10;;
56343;SDS011;42245;42.058;24.700;2023-09-18T10:00:25;5.65;;;2.83;;
56343;SDS011;42245;42.058;24.700;2023-09-18T10:02:56;7.63;;;3.63;;
56343;SDS011;42245;42.058;24.700;2023-09-18T10:05:24;4.78;;;3.25;;
56343;SDS011;42245;42.058;24.700;2023-09-18T10:07:53;4.95;;;3.22;;
56343;SDS011;42245;42.058;24.700;2023-09-18T10:10:19;4.93;;;3.20;;
56343;SDS011;42245;42.058;24.700;2023-09-18T10:12:45;6.43;;;3.38;;
56343;SDS011;42245;42.058;24.700;2023-09-18T10:15:11;4.72;;;3.40;;
56343;SDS011;42245;42.058;24.700;2023-09-18T10:17:37;5.05;;;3.60;;
56343;SDS011;42245;42.058;24.700;2023-09-18T10:20:11;6.45;;;3.53;;
56343;SDS011;42245;42.058;24.700;2023-09-18T10:22:48;4.05;;;2.92;;
56343;SDS011;42245;42.058;24.700;2023-09-18T10:25:20;4.32;;;2.90;;
56343;SDS011;42245;42.058;24.700;2023-09-18T10:27:49;7.97;;;3.25;;
56343;SDS011;42245;42.058;24.700;2023-09-18T10:30:18;5.18;;;2.95;;
56343;SDS011;42245;42.058;24.700;2023-09-18T10:32:45;4.25;;;3.70;;
56343;SDS011;42245;42.058;24.700;2023-09-18T10:35:11;7.65;;;3.10;;
56343;SDS011;42245;42.058;24.700;2023-09-18T10:37:37;6.20;;;2.78;;
56343;SDS011;42245;42.058;24.700;2023-09-18T10:40:04;5.20;;;3.00;;
56343;SDS011;42245;42.058;24.700;2023-09-18T10:42:33;7.30;;;3.05;;
56343;SDS011;42245;42.058;24.700;2023-09-18T10:44:59;4.97;;;2.78;;
56343;SDS011;42245;42.058;24.700;2023-09-18T10:47:25;4.60;;;2.67;;
56343;SDS011;42245;42.058;24.700;2023-09-18T10:49:51;3.60;;;2.60;;
56343;SDS011;42245;42.058;24.700;2023-09-18T10:52:17;3.90;;;2.30;;
56343;SDS011;42245;42.058;24.700;2023-09-18T10:54:42;5.57;;;2.35;;
56343;SDS011;42245;42.058;24.700;2023-09-18T10:57:09;7.53;;;2.72;;
56343;SDS011;42245;42.058;24.700;2023-09-18T10:59:42;5.20;;;2.90;;
56343;SDS011;42245;42.058;24.700;2023-09-18T11:02:14;3.30;;;2.67;;
56343;SDS011;42245;42.058;24.700;2023-09-18T11:04:44;4.47;;;2.65;;
56343;SDS011;42245;42.058;24.700;2023-09-18T11:07:20;4.50;;;2.80;;
56343;SDS011;42245;42.058;24.700;2023-09-18T11:09:46;6.38;;;2.92;;
56343;SDS011;42245;42.058;24.700;2023-09-18T11:12:14;6.03;;;2.80;;
56343;SDS011;42245;42.058;24.700;2023-09-18T11:14:41;5.20;;;2.75;;
56343;SDS011;42245;42.058;24.700;2023-09-18T11:17:29;5.43;;;2.60;;
56343;SDS011;42245;42.058;24.700;2023-09-18T11:22:39;3.97;;;2.75;;
56343;SDS011;42245;42.058;24.700;2023-09-18T11:27:56;4.95;;;2.50;;
56343;SDS011;42245;42.058;24.700;2023-09-18T11:30:22;5.63;;;2.55;;
56343;SDS011;42245;42.058;24.700;2023-09-18T11:32:49;4.55;;;2.58;;
56343;SDS011;42245;42.058;24.700;2023-09-18T11:35:14;5.78;;;2.65;;
56343;SDS011;42245;42.058;24.700;2023-09-18T11:37:42;5.85;;;2.88;;
56343;SDS011;42245;42.058;24.700;2023-09-18T11:40:53;3.92;;;2.60;;
56343;SDS011;42245;42.058;24.700;2023-09-18T11:45:41;5.95;;;2.83;;
56343;SDS011;42245;42.058;24.700;2023-09-18T11:48:07;8.98;;;2.70;;
56343;SDS011;42245;42.058;24.700;2023-09-18T11:50:35;4.20;;;2.65;;
56343;SDS011;42245;42.058;24.700;2023-09-18T11:53:01;5.82;;;2.55;;
56343;SDS011;42245;42.058;24.700;2023-09-18T11:55:27;3.65;;;2.88;;
56343;SDS011;42245;42.058;24.700;2023-09-18T11:57:53;6.35;;;2.85;;
56343;SDS011;42245;42.058;24.700;2023-09-18T12:00:23;4.05;;;2.50;;
56343;SDS011;42245;42.058;24.700;2023-09-18T12:02:50;7.20;;;2.40;;
56343;SDS011;42245;42.058;24.700;2023-09-18T12:05:16;3.50;;;2.80;;
56343;SDS011;42245;42.058;24.700;2023-09-18T12:07:43;5.20;;;2.72;;
56343;SDS011;42245;42.058;24.700;2023-09-18T12:10:10;6.80;;;2.85;;
56343;SDS011;42245;42.058;24.700;2023-09-18T12:12:36;6.72;;;2.90;;
56343;SDS011;42245;42.058;24.700;2023-09-18T12:15:02;4.10;;;2.55;;
56343;SDS011;42245;42.058;24.700;2023-09-18T12:17:28;3.47;;;2.45;;
56343;SDS011;42245;42.058;24.700;2023-09-18T12:19:54;4.00;;;2.50;;
56343;SDS011;42245;42.058;24.700;2023-09-18T12:22:26;4.70;;;2.85;;
56343;SDS011;42245;42.058;24.700;2023-09-18T12:24:52;3.85;;;2.38;;
56343;SDS011;42245;42.058;24.700;2023-09-18T12:27:18;5.15;;;2.65;;
56343;SDS011;42245;42.058;24.700;2023-09-18T12:29:43;8.27;;;2.40;;
56343;SDS011;42245;42.058;24.700;2023-09-18T12:32:09;5.30;;;2.80;;
56343;SDS011;42245;42.058;24.700;2023-09-18T12:34:40;5.45;;;2.80;;
56343;SDS011;42245;42.058;24.700;2023-09-18T12:37:06;4.30;;;2.40;;
56343;SDS011;42245;42.058;24.700;2023-09-18T12:39:32;5.03;;;2.80;;
56343;SDS011;42245;42.058;24.700;2023-09-18T12:41:58;5.07;;;2.80;;
56343;SDS011;42245;42.058;24.700;2023-09-18T12:44:23;4.57;;;2.80;;
56343;SDS011;42245;42.058;24.700;2023-09-18T12:46:49;3.25;;;2.60;;
56343;SDS011;42245;42.058;24.700;2023-09-18T12:49:20;5.60;;;2.70;;
56343;SDS011;42245;42.058;24.700;2023-09-18T12:51:59;7.40;;;2.90;;
56343;SDS011;42245;42.058;24.700;2023-09-18T12:54:42;5.13;;;2.97;;
56343;SDS011;42245;42.058;24.700;2023-09-18T12:57:10;7.30;;;2.90;;
56343;SDS011;42245;42.058;24.700;2023-09-18T12:59:37;6.00;;;2.90;;
56343;SDS011;42245;42.058;24.700;2023-09-18T13:02:03;5.63;;;2.70;;
56343;SDS011;42245;42.058;24.700;2023-09-18T13:04:33;6.75;;;3.00;;
56343;SDS011;42245;42.058;24.700;2023-09-18T13:07:11;2.65;;;2.22;;
56343;SDS011;42245;42.058;24.700;2023-09-18T13:09:38;5.72;;;2.80;;
56343;SDS011;42245;42.058;24.700;2023-09-18T13:12:04;3.60;;;2.80;;
56343;SDS011;42245;42.058;24.700;2023-09-18T13:14:56;9.43;;;3.08;;
56343;SDS011;42245;42.058;24.700;2023-09-18T13:17:43;4.47;;;2.30;;
56343;SDS011;42245;42.058;24.700;2023-09-18T13:20:14;4.45;;;2.22;;
56343;SDS011;42245;42.058;24.700;2023-09-18T13:22:41;6.20;;;2.72;;
56343;SDS011;42245;42.058;24.700;2023-09-18T13:25:10;6.40;;;2.72;;
56343;SDS011;42245;42.058;24.700;2023-09-18T13:27:36;3.45;;;2.40;;
56343;SDS011;42245;42.058;24.700;2023-09-18T13:30:03;2.85;;;2.50;;
56343;SDS011;42245;42.058;24.700;2023-09-18T13:32:33;26.10;;;3.10;;
56343;SDS011;42245;42.058;24.700;2023-09-18T13:35:00;3.42;;;2.25;;
56343;SDS011;42245;42.058;24.700;2023-09-18T13:37:26;4.28;;;2.80;;
56343;SDS011;42245;42.058;24.700;2023-09-18T13:39:54;4.68;;;2.55;;
56343;SDS011;42245;42.058;24.700;2023-09-18T13:42:19;3.28;;;2.42;;
56343;SDS011;42245;42.058;24.700;2023-09-18T13:44:44;6.10;;;3.08;;
56343;SDS011;42245;42.058;24.700;2023-09-18T13:47:12;4.32;;;2.50;;
56343;SDS011;42245;42.058;24.700;2023-09-18T13:49:38;4.55;;;2.40;;
56343;SDS011;42245;42.058;24.700;2023-09-18T13:52:03;4.35;;;2.45;;
56343;SDS011;42245;42.058;24.700;2023-09-18T13:54:29;3.22;;;2.35;;
56343;SDS011;42245;42.058;24.700;2023-09-18T13:56:55;9.07;;;2.58;;
56343;SDS011;42245;42.058;24.700;2023-09-18T13:59:21;5.45;;;2.60;;
56343;SDS011;42245;42.058;24.700;2023-09-18T14:01:46;12.55;;;2.83;;
56343;SDS011;42245;42.058;24.700;2023-09-18T14:04:12;10.32;;;2.70;;
56343;SDS011;42245;42.058;24.700;2023-09-18T14:06:37;5.60;;;2.60;;
56343;SDS011;42245;42.058;24.700;2023-09-18T14:09:03;7.32;;;2.72;;
56343;SDS011;42245;42.058;24.700;2023-09-18T14:11:30;5.32;;;2.58;;
56343;SDS011;42245;42.058;24.700;2023-09-18T14:13:56;10.43;;;2.47;;
56343;SDS011;42245;42.058;24.700;2023-09-18T14:16:21;17.42;;;3.10;;
56343;SDS011;42245;42.058;24.700;2023-09-18T14:18:47;3.67;;;2.10;;
56343;SDS011;42245;42.058;24.700;2023-09-18T14:21:12;5.70;;;2.55;;
56343;SDS011;42245;42.058;24.700;2023-09-18T14:23:37;5.57;;;2.65;;
56343;SDS011;42245;42.058;24.700;2023-09-18T14:26:03;6.63;;;2.80;;
56343;SDS011;42245;42.058;24.700;2023-09-18T14:28:28;5.22;;;2.80;;
56343;SDS011;42245;42.058;24.700;2023-09-18T14:30:54;5.25;;;2.80;;
56343;SDS011;42245;42.058;24.700;2023-09-18T14:33:19;3.45;;;2.70;;
56343;SDS011;42245;42.058;24.700;2023-09-18T14:35:45;3.40;;;2.83;;
56343;SDS011;42245;42.058;24.700;2023-09-18T14:38:10;14.95;;;3.28;;
56343;SDS011;42245;42.058;24.700;2023-09-18T14:40:35;7.43;;;3.00;;
56343;SDS011;42245;42.058;24.700;2023-09-18T14:43:01;4.60;;;2.88;;
56343;SDS011;42245;42.058;24.700;2023-09-18T14:45:26;4.45;;;2.92;;
56343;SDS011;42245;42.058;24.700;2023-09-18T14:47:51;5.50;;;2.92;;